Time,TemperatureF,DewpointF,PressureIn,WindDirection,WindDirectionDegrees,WindSpeedMPH,WindSpeedGustMPH,Humidity,HourlyPrecipIn,Conditions,Clouds,dailyrainin,SolarRadiationWatts/m^2,SoftwareType,DateUTC
2013-01-23 00:22:00,5.0,2.0,-100.00,NW,314,2.0,4.0,86,0.00,,,0.00,0.000000,,2013-01-23 07:22:00,
2013-01-23 00:33:00,5.0,2.0,-100.00,NW,314,2.0,4.0,86,0.00,,,0.00,0.000000,,2013-01-23 07:33:00,
2013-01-23 00:42:00,5.0,2.0,-100.00,NW,314,2.0,4.0,86,0.00,,,0.00,0.000000,,2013-01-23 07:42:00,
2013-01-23 00:52:00,5.0,2.0,-100.00,NW,314,2.0,4.0,86,0.00,,,0.00,0.000000,,2013-01-23 07:52:00,
2013-01-23 01:22:00,2.0,-2.0,-100.00,North,349,1.0,4.0,84,0.00,,,-99.99,0.000000,,2013-01-23 08:22:00,
2013-01-23 01:33:00,2.0,-2.0,-100.00,North,349,1.0,4.0,84,0.00,,,-99.99,0.000000,,2013-01-23 08:33:00,
2013-01-23 01:42:00,2.0,-2.0,-100.00,North,349,1.0,4.0,84,0.00,,,-99.99,0.000000,,2013-01-23 08:42:00,
2013-01-23 01:52:00,2.0,-2.0,-100.00,North,349,1.0,4.0,84,0.00,,,-99.99,0.000000,,2013-01-23 08:52:00,
2013-01-23 02:22:00,7.0,4.0,-100.00,North,7,3.0,5.0,86,0.00,,,0.00,0.000000,,2013-01-23 09:22:00,
2013-01-23 02:32:00,7.0,4.0,-100.00,North,7,3.0,5.0,86,0.00,,,0.00,0.000000,,2013-01-23 09:32:00,
2013-01-23 02:43:00,7.0,4.0,-100.00,North,7,3.0,5.0,86,0.00,,,0.00,0.000000,,2013-01-23 09:43:00,
2013-01-23 02:52:00,7.0,4.0,-100.00,North,7,3.0,5.0,86,0.00,,,0.00,0.000000,,2013-01-23 09:52:00,
2013-01-23 03:22:00,-2.0,-8.0,-100.00,NNE,26,4.0,6.0,76,0.00,,,0.00,0.000000,,2013-01-23 10:22:00,
2013-01-23 03:32:00,-2.0,-8.0,-100.00,NNE,26,4.0,6.0,76,0.00,,,0.00,0.000000,,2013-01-23 10:32:00,
2013-01-23 04:22:00,2.0,-1.0,-100.00,NW,305,0.0,3.0,85,0.00,,,0.00,0.000000,,2013-01-23 11:22:00,
2013-01-23 04:33:00,2.0,-1.0,-100.00,NW,305,0.0,3.0,85,0.00,,,0.00,0.000000,,2013-01-23 11:33:00,
2013-01-23 04:42:00,2.0,-1.0,-100.00,NW,305,0.0,3.0,85,0.00,,,0.00,0.000000,,2013-01-23 11:42:00,
2013-01-23 04:52:00,2.0,-1.0,-100.00,NW,305,0.0,3.0,85,0.00,,,0.00,0.000000,,2013-01-23 11:52:00,
2013-01-23 05:22:00,1.0,-4.0,-100.00,NW,322,0.0,0.0,80,0.00,,,0.00,0.000000,,2013-01-23 12:22:00,
2013-01-23 05:33:00,1.0,-4.0,-100.00,NW,322,0.0,0.0,80,0.00,,,0.00,0.000000,,2013-01-23 12:33:00,
2013-01-23 05:42:00,1.0,-4.0,-100.00,NW,322,0.0,0.0,80,0.00,,,0.00,0.000000,,2013-01-23 12:42:00,
2013-01-23 05:52:00,1.0,-4.0,-100.00,NW,322,0.0,0.0,80,0.00,,,0.00,0.000000,,2013-01-23 12:52:00,
2013-01-23 06:23:00,-7.0,-12.0,-100.00,NNE,16,0.0,0.0,80,0.00,,,0.00,0.000000,,2013-01-23 13:23:00,
2013-01-23 06:42:00,-7.0,-12.0,-100.00,NNE,16,0.0,0.0,80,0.00,,,0.00,0.000000,,2013-01-23 13:42:00,
2013-01-23 06:52:00,-7.0,-12.0,-100.00,NNE,16,0.0,0.0,80,0.00,,,0.00,0.000000,,2013-01-23 13:52:00,
2013-01-23 07:23:00,-2.0,-7.0,-100.00,North,2,0.0,0.0,80,0.00,,,0.00,0.000000,,2013-01-23 14:23:00,
2013-01-23 07:33:00,-2.0,-7.0,-100.00,North,2,0.0,0.0,80,0.00,,,0.00,0.000000,,2013-01-23 14:33:00,
2013-01-23 07:42:00,-2.0,-7.0,-100.00,North,2,0.0,0.0,80,0.00,,,0.00,0.000000,,2013-01-23 14:42:00,
2013-01-23 07:52:00,-2.0,-7.0,-100.00,North,2,0.0,0.0,80,0.00,,,0.00,0.000000,,2013-01-23 14:52:00,
2013-01-23 08:22:00,-1.0,-6.0,-100.00,NNW,330,0.0,0.0,80,0.00,,,0.00,1.000000,,2013-01-23 15:22:00,
2013-01-23 08:33:00,-1.0,-6.0,-100.00,NNW,330,0.0,0.0,80,0.00,,,0.00,1.000000,,2013-01-23 15:33:00,
2013-01-23 08:43:00,-1.0,-6.0,-100.00,NNW,330,0.0,0.0,80,0.00,,,0.00,1.000000,,2013-01-23 15:43:00,
2013-01-23 08:52:00,-1.0,-6.0,-100.00,NNW,330,0.0,0.0,80,0.00,,,0.00,1.000000,,2013-01-23 15:52:00,
2013-01-23 09:22:00,3.0,-1.0,-100.00,North,3,0.0,0.0,82,0.00,,,0.00,51.000000,,2013-01-23 16:22:00,
2013-01-23 09:32:00,3.0,-1.0,-100.00,North,3,0.0,0.0,82,0.00,,,0.00,51.000000,,2013-01-23 16:32:00,
2013-01-23 09:42:00,3.0,-1.0,-100.00,North,3,0.0,0.0,82,0.00,,,0.00,51.000000,,2013-01-23 16:42:00,
2013-01-23 09:52:00,3.0,-1.0,-100.00,North,3,0.0,0.0,82,0.00,,,0.00,51.000000,,2013-01-23 16:52:00,
2013-01-23 10:22:00,4.0,-2.0,-100.00,NNE,30,5.0,7.0,75,0.00,,,0.00,186.000000,,2013-01-23 17:22:00,
2013-01-23 10:33:00,4.0,-2.0,-100.00,NNE,30,5.0,7.0,75,0.00,,,0.00,186.000000,,2013-01-23 17:33:00,
2013-01-23 10:42:00,4.0,-2.0,-100.00,NNE,30,5.0,7.0,75,0.00,,,0.00,186.000000,,2013-01-23 17:42:00,
2013-01-23 10:52:00,4.0,-2.0,-100.00,NNE,30,5.0,7.0,75,0.00,,,0.00,186.000000,,2013-01-23 17:52:00,
2013-01-23 11:23:00,7.0,0.0,-100.00,NE,38,3.0,6.0,74,0.00,,,0.00,264.000000,,2013-01-23 18:23:00,
2013-01-23 11:33:00,7.0,0.0,-100.00,NE,38,3.0,6.0,74,0.00,,,0.00,264.000000,,2013-01-23 18:33:00,
2013-01-23 11:43:00,7.0,0.0,-100.00,NE,38,3.0,6.0,74,0.00,,,0.00,264.000000,,2013-01-23 18:43:00,
2013-01-23 11:52:00,7.0,0.0,-100.00,NE,38,3.0,6.0,74,0.00,,,0.00,264.000000,,2013-01-23 18:52:00,
2013-01-23 12:22:00,10.0,4.0,-100.00,NNE,31,5.0,6.0,75,0.00,,,0.00,236.000000,,2013-01-23 19:22:00,
2013-01-23 12:33:00,10.0,4.0,-100.00,NNE,31,5.0,6.0,75,0.00,,,0.00,236.000000,,2013-01-23 19:33:00,
2013-01-23 12:43:00,10.0,4.0,-100.00,NNE,31,5.0,6.0,75,0.00,,,0.00,236.000000,,2013-01-23 19:43:00,
2013-01-23 12:52:00,10.0,4.0,-100.00,NNE,31,5.0,6.0,75,0.00,,,0.00,236.000000,,2013-01-23 19:52:00,
2013-01-23 13:23:00,14.0,6.0,-100.00,NNE,26,3.0,6.0,71,0.00,,,0.00,291.000000,,2013-01-23 20:23:00,
2013-01-23 13:33:00,14.0,6.0,-100.00,NNE,26,3.0,6.0,71,0.00,,,0.00,291.000000,,2013-01-23 20:33:00,
2013-01-23 13:42:00,14.0,6.0,-100.00,NNE,26,3.0,6.0,71,0.00,,,0.00,291.000000,,2013-01-23 20:42:00,
2013-01-23 13:53:00,14.0,6.0,-100.00,NNE,26,3.0,6.0,71,0.00,,,0.00,291.000000,,2013-01-23 20:53:00,
2013-01-23 14:22:00,15.0,7.0,-100.00,NE,40,2.0,4.0,70,0.00,,,0.00,252.000000,,2013-01-23 21:22:00,
2013-01-23 14:33:00,15.0,7.0,-100.00,NE,40,2.0,4.0,70,0.00,,,0.00,252.000000,,2013-01-23 21:33:00,
2013-01-23 15:22:00,18.0,8.0,-100.00,South,174,0.0,5.0,65,-99.99,,,0.00,204.000000,,2013-01-23 22:22:00,
2013-01-23 15:33:00,18.0,8.0,-100.00,South,174,0.0,5.0,65,-99.99,,,0.00,204.000000,,2013-01-23 22:33:00,
2013-01-23 15:42:00,18.0,8.0,-100.00,South,174,0.0,5.0,65,-99.99,,,0.00,204.000000,,2013-01-23 22:42:00,
2013-01-23 15:52:00,18.0,8.0,-100.00,South,174,0.0,5.0,65,-99.99,,,0.00,204.000000,,2013-01-23 22:52:00,
2013-01-23 16:22:00,14.0,6.0,-100.00,NNE,29,3.0,5.0,71,0.00,,,0.00,148.000000,,2013-01-23 23:22:00,
2013-01-23 17:22:00,14.0,8.0,-100.00,NW,312,1.0,4.0,77,-99.99,,,0.00,59.000000,,2013-01-24 00:22:00,
2013-01-23 18:22:00,14.0,9.0,-100.00,WNW,302,1.0,4.0,81,0.00,,,0.00,4.000000,,2013-01-24 01:22:00,
2013-01-23 18:33:00,14.0,9.0,-100.00,WNW,302,1.0,4.0,81,0.00,,,0.00,4.000000,,2013-01-24 01:33:00,
2013-01-23 18:42:00,14.0,9.0,-100.00,WNW,302,1.0,4.0,81,0.00,,,0.00,4.000000,,2013-01-24 01:42:00,
2013-01-23 18:52:00,14.0,9.0,-100.00,WNW,302,1.0,4.0,81,0.00,,,0.00,4.000000,,2013-01-24 01:52:00,
2013-01-23 19:22:00,12.0,8.0,-100.00,West,268,1.0,4.0,84,0.00,,,0.00,0.000000,,2013-01-24 02:22:00,
2013-01-23 19:33:00,12.0,8.0,-100.00,West,268,1.0,4.0,84,0.00,,,0.00,0.000000,,2013-01-24 02:33:00,
2013-01-23 19:42:00,12.0,8.0,-100.00,West,268,1.0,4.0,84,0.00,,,0.00,0.000000,,2013-01-24 02:42:00,
2013-01-23 19:52:00,12.0,8.0,-100.00,West,268,1.0,4.0,84,0.00,,,0.00,0.000000,,2013-01-24 02:52:00,
2013-01-23 20:22:00,9.0,6.0,-100.00,NW,324,1.0,3.0,88,0.00,,,0.00,0.000000,,2013-01-24 03:22:00,
2013-01-23 20:32:00,9.0,6.0,-100.00,NW,324,1.0,3.0,88,0.00,,,0.00,0.000000,,2013-01-24 03:32:00,
2013-01-23 20:42:00,9.0,6.0,-100.00,NW,324,1.0,3.0,88,0.00,,,0.00,0.000000,,2013-01-24 03:42:00,
2013-01-23 20:52:00,9.0,6.0,-100.00,NW,324,1.0,3.0,88,0.00,,,0.00,0.000000,,2013-01-24 03:52:00,
2013-01-23 21:22:00,9.0,5.0,-100.00,NNW,327,3.0,5.0,84,0.00,,,0.00,0.000000,,2013-01-24 04:22:00,
2013-01-23 21:32:00,9.0,5.0,-100.00,NNW,327,3.0,5.0,84,0.00,,,0.00,0.000000,,2013-01-24 04:32:00,
2013-01-23 21:42:00,9.0,5.0,-100.00,NNW,327,3.0,5.0,84,0.00,,,0.00,0.000000,,2013-01-24 04:42:00,
2013-01-23 21:52:00,9.0,5.0,-100.00,NNW,327,3.0,5.0,84,0.00,,,0.00,0.000000,,2013-01-24 04:52:00,
2013-01-23 22:22:00,6.0,2.0,-100.00,NW,311,2.0,5.0,85,0.00,,,0.00,0.000000,,2013-01-24 05:22:00,
2013-01-23 22:32:00,6.0,2.0,-100.00,NW,311,2.0,5.0,85,0.00,,,0.00,0.000000,,2013-01-24 05:32:00,
2013-01-23 22:42:00,6.0,2.0,-100.00,NW,311,2.0,5.0,85,0.00,,,0.00,0.000000,,2013-01-24 05:42:00,
2013-01-23 22:52:00,6.0,2.0,-100.00,NW,311,2.0,5.0,85,0.00,,,0.00,0.000000,,2013-01-24 05:52:00,
2013-01-23 23:22:00,7.0,4.0,-100.00,NNW,336,2.0,7.0,88,0.00,,,0.00,0.000000,,2013-01-24 06:22:00,
2013-01-23 23:32:00,7.0,4.0,-100.00,NNW,336,2.0,7.0,88,0.00,,,0.00,0.000000,,2013-01-24 06:32:00,
2013-01-23 23:42:00,7.0,4.0,-100.00,NNW,336,2.0,7.0,88,0.00,,,0.00,0.000000,,2013-01-24 06:42:00,
2013-01-23 23:52:00,7.0,4.0,-100.00,NNW,336,2.0,7.0,88,0.00,,,0.00,0.000000,,2013-01-24 06:52:00,